sensor_id;sensor_type;location;lat;lon;timestamp;pressure;altitude;pressure_sealevel;temperature;humidity
71457;BME280;59263;48.160;11.752;2023-09-19T00:02:12;95695.50;;;15.04;100.00
71457;BME280;59263;48.160;11.752;2023-09-19T00:04:37;95687.47;;;15.14;100.00
71457;BME280;59263;48.160;11.752;2023-09-19T00:07:05;95693.28;;;15.16;100.00
71457;BME280;59263;48.160;11.752;2023-09-19T00:09:30;95689.88;;;15.15;100.00
71457;BME280;59263;48.160;11.752;2023-09-19T00:12:02;95680.44;;;15.14;100.00
71457;BME280;59263;48.160;11.752;2023-09-19T00:14:28;95670.38;;;15.11;100.00
71457;BME280;59263;48.160;11.752;2023-09-19T00:16:53;95690.88;;;15.14;100.00
71457;BME280;59263;48.160;11.752;2023-09-19T00:19:19;95680.44;;;15.14;100.00
71457;BME280;59263;48.160;11.752;2023-09-19T00:21:45;95698.69;;;15.14;100.00
71457;BME280;59263;48.160;11.752;2023-09-19T00:24:12;95701.56;;;15.19;100.00
71457;BME280;59263;48.160;11.752;2023-09-19T00:26:39;95698.97;;;15.19;100.00
71457;BME280;59263;48.160;11.752;2023-09-19T00:29:04;95685.94;;;15.19;100.00
71457;BME280;59263;48.160;11.752;2023-09-19T00:31:30;95695.41;;;15.20;100.00
71457;BME280;59263;48.160;11.752;2023-09-19T00:33:55;95699.56;;;15.30;100.00
71457;BME280;59263;48.160;11.752;2023-09-19T00:36:25;95679.75;;;15.20;100.00
71457;BME280;59263;48.160;11.752;2023-09-19T00:38:50;95688.72;;;15.41;100.00
71457;BME280;59263;48.160;11.752;2023-09-19T00:41:15;95691.44;;;15.47;100.00
71457;BME280;59263;48.160;11.752;2023-09-19T00:43:40;95689.97;;;15.45;100.00
71457;BME280;59263;48.160;11.752;2023-09-19T00:46:06;95697.44;;;15.48;100.00
71457;BME280;59263;48.160;11.752;2023-09-19T00:48:32;95682.41;;;15.35;100.00
71457;BME280;59263;48.160;11.752;2023-09-19T00:51:04;95702.38;;;15.43;100.00
71457;BME280;59263;48.160;11.752;2023-09-19T00:53:30;95692.66;;;15.37;100.00
71457;BME280;59263;48.160;11.752;2023-09-19T00:55:56;95696.63;;;15.47;100.00
71457;BME280;59263;48.160;11.752;2023-09-19T00:58:21;95696.28;;;15.51;100.00
71457;BME280;59263;48.160;11.752;2023-09-19T01:00:50;95698.72;;;15.52;100.00
71457;BME280;59263;48.160;11.752;2023-09-19T01:03:17;95698.56;;;15.54;100.00
71457;BME280;59263;48.160;11.752;2023-09-19T01:05:43;95697.22;;;15.58;100.00
71457;BME280;59263;48.160;11.752;2023-09-19T01:08:09;95712.88;;;15.58;100.00
71457;BME280;59263;48.160;11.752;2023-09-19T01:10:39;95717.63;;;15.54;100.00
71457;BME280;59263;48.160;11.752;2023-09-19T01:13:21;95730.44;;;15.41;100.00
71457;BME280;59263;48.160;11.752;2023-09-19T01:16:27;95729.69;;;15.32;100.00
71457;BME280;59263;48.160;11.752;2023-09-19T01:21:29;95728.16;;;15.38;100.00
71457;BME280;59263;48.160;11.752;2023-09-19T01:29:42;95732.78;;;15.28;100.00
71457;BME280;59263;48.160;11.752;2023-09-19T01:32:11;95736.06;;;15.30;100.00
71457;BME280;59263;48.160;11.752;2023-09-19T01:35:00;95729.81;;;15.39;100.00
71457;BME280;59263;48.160;11.752;2023-09-19T01:37:29;95738.25;;;15.41;100.00
71457;BME280;59263;48.160;11.752;2023-09-19T01:40:05;95741.50;;;15.43;100.00
71457;BME280;59263;48.160;11.752;2023-09-19T01:43:05;95745.19;;;15.48;100.00
71457;BME280;59263;48.160;11.752;2023-09-19T01:51:26;95751.56;;;15.46;100.00
71457;BME280;59263;48.160;11.752;2023-09-19T01:54:02;95752.56;;;15.45;100.00
71457;BME280;59263;48.160;11.752;2023-09-19T01:56:34;95749.41;;;15.49;100.00
71457;BME280;59263;48.160;11.752;2023-09-19T01:59:05;95755.63;;;15.48;100.00
71457;BME280;59263;48.160;11.752;2023-09-19T02:01:33;95756.44;;;15.49;100.00
71457;BME280;59263;48.160;11.752;2023-09-19T02:04:00;95749.94;;;15.45;100.00
71457;BME280;59263;48.160;11.752;2023-09-19T02:06:25;95749.25;;;15.51;100.00
71457;BME280;59263;48.160;11.752;2023-09-19T02:08:53;95745.03;;;15.50;100.00
71457;BME280;59263;48.160;11.752;2023-09-19T02:11:19;95732.69;;;15.44;100.00
71457;BME280;59263;48.160;11.752;2023-09-19T02:13:44;95753.75;;;15.57;100.00
71457;BME280;59263;48.160;11.752;2023-09-19T02:16:09;95740.56;;;15.59;100.00
71457;BME280;59263;48.160;11.752;2023-09-19T02:18:36;95734.19;;;15.61;100.00
71457;BME280;59263;48.160;11.752;2023-09-19T02:21:01;95744.25;;;15.64;100.00
71457;BME280;59263;48.160;11.752;2023-09-19T02:23:27;95742.31;;;15.66;100.00
71457;BME280;59263;48.160;11.752;2023-09-19T02:25:56;95746.47;;;15.76;100.00
71457;BME280;59263;48.160;11.752;2023-09-19T02:28:29;95745.66;;;15.75;100.00
71457;BME280;59263;48.160;11.752;2023-09-19T02:30:56;95734.75;;;15.71;100.00
71457;BME280;59263;48.160;11.752;2023-09-19T02:33:21;95736.84;;;15.76;100.00
71457;BME280;59263;48.160;11.752;2023-09-19T02:35:47;95746.00;;;15.72;100.00
71457;BME280;59263;48.160;11.752;2023-09-19T02:38:12;95749.16;;;15.67;100.00
71457;BME280;59263;48.160;11.752;2023-09-19T02:40:38;95755.66;;;15.63;100.00
71457;BME280;59263;48.160;11.752;2023-09-19T02:43:03;95751.00;;;15.59;100.00
71457;BME280;59263;48.160;11.752;2023-09-19T02:45:30;95750.66;;;15.62;100.00
71457;BME280;59263;48.160;11.752;2023-09-19T02:47:55;95745.56;;;15.68;100.00
71457;BME280;59263;48.160;11.752;2023-09-19T02:50:21;95742.81;;;15.62;100.00
71457;BME280;59263;48.160;11.752;2023-09-19T02:52:47;95760.63;;;15.58;100.00
71457;BME280;59263;48.160;11.752;2023-09-19T02:55:14;95755.09;;;15.53;100.00
71457;BME280;59263;48.160;11.752;2023-09-19T02:57:46;95750.41;;;15.48;100.00
71457;BME280;59263;48.160;11.752;2023-09-19T03:00:12;95748.59;;;15.49;100.00
71457;BME280;59263;48.160;11.752;2023-09-19T03:02:37;95746.81;;;15.49;100.00
71457;BME280;59263;48.160;11.752;2023-09-19T03:05:05;95752.47;;;15.53;100.00
71457;BME280;59263;48.160;11.752;2023-09-19T03:07:30;95733.00;;;15.64;100.00
71457;BME280;59263;48.160;11.752;2023-09-19T03:09:56;95726.66;;;15.66;100.00
71457;BME280;59263;48.160;11.752;2023-09-19T03:12:21;95744.38;;;15.71;100.00
71457;BME280;59263;48.160;11.752;2023-09-19T03:14:47;95741.63;;;15.64;100.00
71457;BME280;59263;48.160;11.752;2023-09-19T03:17:13;95745.06;;;15.65;100.00
71457;BME280;59263;48.160;11.752;2023-09-19T03:19:40;95743.63;;;15.62;100.00
71457;BME280;59263;48.160;11.752;2023-09-19T03:22:05;95747.84;;;15.63;100.00
71457;BME280;59263;48.160;11.752;2023-09-19T03:24:31;95739.41;;;15.61;100.00
71457;BME280;59263;48.160;11.752;2023-09-19T03:26:57;95742.31;;;15.66;100.00
71457;BME280;59263;48.160;11.752;2023-09-19T03:29:22;95740.34;;;15.68;100.00
71457;BME280;59263;48.160;11.752;2023-09-19T03:31:47;95745.19;;;15.71;100.00
71457;BME280;59263;48.160;11.752;2023-09-19T03:34:13;95743.44;;;15.64;100.00
71457;BME280;59263;48.160;11.752;2023-09-19T03:36:39;95738.47;;;15.54;100.00
71457;BME280;59263;48.160;11.752;2023-09-19T03:39:05;95748.44;;;15.73;100.00
71457;BME280;59263;48.160;11.752;2023-09-19T03:41:31;95755.00;;;15.69;100.00
71457;BME280;59263;48.160;11.752;2023-09-19T03:43:58;95761.88;;;15.62;100.00
71457;BME280;59263;48.160;11.752;2023-09-19T03:46:23;95740.56;;;15.59;100.00
71457;BME280;59263;48.160;11.752;2023-09-19T03:48:50;95752.44;;;15.61;100.00
71457;BME280;59263;48.160;11.752;2023-09-19T03:51:15;95754.94;;;15.55;100.00
71457;BME280;59263;48.160;11.752;2023-09-19T03:53:41;95764.38;;;15.56;100.00
71457;BME280;59263;48.160;11.752;2023-09-19T03:56:06;95774.63;;;15.57;100.00
71457;BME280;59263;48.160;11.752;2023-09-19T03:58:33;95761.06;;;15.62;100.00
71457;BME280;59263;48.160;11.752;2023-09-19T04:01:00;95782.44;;;15.57;100.00
71457;BME280;59263;48.160;11.752;2023-09-19T04:03:25;95772.66;;;15.59;100.00
71457;BME280;59263;48.160;11.752;2023-09-19T04:05:59;95779.41;;;15.54;100.00
71457;BME280;59263;48.160;11.752;2023-09-19T04:08:25;95779.16;;;15.63;100.00
71457;BME280;59263;48.160;11.752;2023-09-19T04:10:50;95769.41;;;15.57;100.00
71457;BME280;59263;48.160;11.752;2023-09-19T04:13:16;95774.47;;;15.59;100.00
71457;BME280;59263;48.160;11.752;2023-09-19T04:15:41;95771.75;;;15.52;100.00
71457;BME280;59263;48.160;11.752;2023-09-19T04:18:07;95779.50;;;15.60;100.00
71457;BME280;59263;48.160;11.752;2023-09-19T04:20:32;95778.84;;;15.66;100.00
71457;BME280;59263;48.160;11.752;2023-09-19T04:22:58;95782.09;;;15.68;100.00
71457;BME280;59263;48.160;11.752;2023-09-19T04:25:25;95776.88;;;15.68;100.00
71457;BME280;59263;48.160;11.752;2023-09-19T04:27:52;95776.81;;;15.77;100.00
71457;BME280;59263;48.160;11.752;2023-09-19T04:30:18;95782.38;;;15.73;100.00
71457;BME280;59263;48.160;11.752;2023-09-19T04:32:43;95776.50;;;15.71;100.00
71457;BME280;59263;48.160;11.752;2023-09-19T04:35:10;95790.53;;;15.70;100.00
71457;BME280;59263;48.160;11.752;2023-09-19T04:37:39;95793.69;;;15.66;100.00
71457;BME280;59263;48.160;11.752;2023-09-19T04:40:07;95793.16;;;15.70;100.00
71457;BME280;59263;48.160;11.752;2023-09-19T04:42:38;95793.50;;;15.67;100.00
71457;BME280;59263;48.160;11.752;2023-09-19T04:45:04;95784.97;;;15.73;100.00
71457;BME280;59263;48.160;11.752;2023-09-19T04:47:30;95801.56;;;15.81;100.00
71457;BME280;59263;48.160;11.752;2023-09-19T04:49:55;95790.94;;;15.82;100.00
71457;BME280;59263;48.160;11.752;2023-09-19T04:52:22;95788.97;;;15.84;100.00
71457;BME280;59263;48.160;11.752;2023-09-19T04:54:47;95798.59;;;15.84;100.00
71457;BME280;59263;48.160;11.752;2023-09-19T04:57:13;95806.78;;;15.81;100.00
71457;BME280;59263;48.160;11.752;2023-09-19T04:59:39;95806.78;;;15.81;100.00
71457;BME280;59263;48.160;11.752;2023-09-19T05:02:06;95803.75;;;15.92;100.00
71457;BME280;59263;48.160;11.752;2023-09-19T05:04:33;95805.34;;;15.93;100.00
71457;BME280;59263;48.160;11.752;2023-09-19T05:06:58;95811.84;;;15.97;100.00
71457;BME280;59263;48.160;11.752;2023-09-19T05:09:24;95808.53;;;16.03;100.00
71457;BME280;59263;48.160;11.752;2023-09-19T05:11:50;95802.31;;;16.04;100.00
71457;BME280;59263;48.160;11.752;2023-09-19T05:14:16;95820.88;;;16.09;100.00
71457;BME280;59263;48.160;11.752;2023-09-19T05:16:41;95823.84;;;16.06;100.00
71457;BME280;59263;48.160;11.752;2023-09-19T05:19:08;95818.28;;;16.09;100.00
71457;BME280;59263;48.160;11.752;2023-09-19T05:21:36;95822.03;;;16.07;100.00
71457;BME280;59263;48.160;11.752;2023-09-19T05:24:04;95828.19;;;16.14;100.00
71457;BME280;59263;48.160;11.752;2023-09-19T05:26:31;95827.38;;;16.13;100.00
71457;BME280;59263;48.160;11.752;2023-09-19T05:28:57;95832.13;;;16.10;100.00
71457;BME280;59263;48.160;11.752;2023-09-19T05:31:22;95827.72;;;16.10;100.00
71457;BME280;59263;48.160;11.752;2023-09-19T05:33:48;95831.69;;;16.06;100.00
71457;BME280;59263;48.160;11.752;2023-09-19T05:36:14;95841.03;;;16.15;100.00
71457;BME280;59263;48.160;11.752;2023-09-19T05:38:42;95832.59;;;16.13;100.00
71457;BME280;59263;48.160;11.752;2023-09-19T05:41:08;95834.94;;;16.23;100.00
71457;BME280;59263;48.160;11.752;2023-09-19T05:43:34;95826.84;;;16.18;100.00
71457;BME280;59263;48.160;11.752;2023-09-19T05:46:02;95837.91;;;16.20;100.00
71457;BME280;59263;48.160;11.752;2023-09-19T05:48:28;95848.72;;;16.17;100.00
71457;BME280;59263;48.160;11.752;2023-09-19T05:50:53;95855.44;;;16.11;100.00
71457;BME280;59263;48.160;11.752;2023-09-19T05:53:19;95849.53;;;16.17;100.00
71457;BME280;59263;48.160;11.752;2023-09-19T05:55:44;95845.19;;;16.10;100.00
71457;BME280;59263;48.160;11.752;2023-09-19T05:58:10;95844.44;;;16.01;100.00
71457;BME280;59263;48.160;11.752;2023-09-19T06:00:39;95857.06;;;16.12;100.00
71457;BME280;59263;48.160;11.752;2023-09-19T06:03:06;95857.78;;;16.06;100.00
71457;BME280;59263;48.160;11.752;2023-09-19T06:05:33;95870.66;;;16.08;100.00
71457;BME280;59263;48.160;11.752;2023-09-19T06:07:58;95876.66;;;16.08;100.00
71457;BME280;59263;48.160;11.752;2023-09-19T06:10:33;95880.34;;;15.99;100.00
71457;BME280;59263;48.160;11.752;2023-09-19T06:13:00;95873.31;;;16.00;100.00
71457;BME280;59263;48.160;11.752;2023-09-19T06:15:25;95868.22;;;16.06;100.00
71457;BME280;59263;48.160;11.752;2023-09-19T06:17:53;95878.75;;;16.13;100.00
71457;BME280;59263;48.160;11.752;2023-09-19T06:20:22;95878.66;;;16.06;100.00
71457;BME280;59263;48.160;11.752;2023-09-19T06:22:48;95862.28;;;16.12;100.00
71457;BME280;59263;48.160;11.752;2023-09-19T06:25:15;95861.50;;;16.27;100.00
71457;BME280;59263;48.160;11.752;2023-09-19T06:27:48;95860.03;;;16.47;100.00
71457;BME280;59263;48.160;11.752;2023-09-19T06:30:14;95857.06;;;16.50;100.00
71457;BME280;59263;48.160;11.752;2023-09-19T06:32:40;95866.16;;;16.54;100.00
71457;BME280;59263;48.160;11.752;2023-09-19T06:35:09;95866.59;;;16.58;100.00
71457;BME280;59263;48.160;11.752;2023-09-19T06:37:36;95859.03;;;16.48;100.00
71457;BME280;59263;48.160;11.752;2023-09-19T06:40:09;95884.63;;;16.67;100.00
71457;BME280;59263;48.160;11.752;2023-09-19T06:42:40;95859.59;;;16.73;100.00
71457;BME280;59263;48.160;11.752;2023-09-19T06:45:07;95875.00;;;16.83;100.00
71457;BME280;59263;48.160;11.752;2023-09-19T06:47:32;95856.34;;;16.86;100.00
71457;BME280;59263;48.160;11.752;2023-09-19T06:49:58;95867.09;;;16.91;100.00
71457;BME280;59263;48.160;11.752;2023-09-19T06:52:23;95866.72;;;16.79;100.00
71457;BME280;59263;48.160;11.752;2023-09-19T06:54:49;95863.50;;;16.77;100.00
71457;BME280;59263;48.160;11.752;2023-09-19T06:57:16;95857.25;;;16.78;100.00
71457;BME280;59263;48.160;11.752;2023-09-19T06:59:41;95878.16;;;16.93;100.00
71457;BME280;59263;48.160;11.752;2023-09-19T07:02:06;95892.78;;;16.87;100.00
71457;BME280;59263;48.160;11.752;2023-09-19T07:04:33;95882.78;;;16.91;100.00
71457;BME280;59263;48.160;11.752;2023-09-19T07:06:58;95880.44;;;16.96;100.00
71457;BME280;59263;48.160;11.752;2023-09-19T07:09:24;95877.63;;;16.98;100.00
71457;BME280;59263;48.160;11.752;2023-09-19T07:11:52;95877.69;;;17.19;100.00
71457;BME280;59263;48.160;11.752;2023-09-19T07:14:18;95878.47;;;17.34;100.00
71457;BME280;59263;48.160;11.752;2023-09-19T07:16:43;95879.00;;;17.45;100.00
71457;BME280;59263;48.160;11.752;2023-09-19T07:19:10;95876.63;;;17.50;100.00
71457;BME280;59263;48.160;11.752;2023-09-19T07:21:35;95866.25;;;17.56;100.00
71457;BME280;59263;48.160;11.752;2023-09-19T07:24:01;95873.72;;;17.59;100.00
71457;BME280;59263;48.160;11.752;2023-09-19T07:26:27;95887.69;;;17.66;100.00
71457;BME280;59263;48.160;11.752;2023-09-19T07:28:53;95898.09;;;17.60;100.00
71457;BME280;59263;48.160;11.752;2023-09-19T07:31:18;95896.03;;;17.55;100.00
71457;BME280;59263;48.160;11.752;2023-09-19T07:33:44;95906.88;;;17.52;100.00
71457;BME280;59263;48.160;11.752;2023-09-19T07:36:10;95903.81;;;17.49;100.00
71457;BME280;59263;48.160;11.752;2023-09-19T07:38:38;95902.31;;;17.39;100.00
71457;BME280;59263;48.160;11.752;2023-09-19T07:41:04;95908.44;;;17.32;100.00
71457;BME280;59263;48.160;11.752;2023-09-19T07:43:30;95899.22;;;17.51;100.00
71457;BME280;59263;48.160;11.752;2023-09-19T07:45:56;95898.81;;;17.54;100.00
71457;BME280;59263;48.160;11.752;2023-09-19T07:48:22;95900.53;;;17.61;100.00
71457;BME280;59263;48.160;11.752;2023-09-19T07:50:48;95879.03;;;17.81;100.00
71457;BME280;59263;48.160;11.752;2023-09-19T07:53:13;95880.78;;;17.95;100.00
71457;BME280;59263;48.160;11.752;2023-09-19T07:55:41;95878.31;;;18.15;100.00
71457;BME280;59263;48.160;11.752;2023-09-19T07:58:07;95871.75;;;18.26;100.00
71457;BME280;59263;48.160;11.752;2023-09-19T08:00:33;95882.81;;;18.49;100.00
71457;BME280;59263;48.160;11.752;2023-09-19T08:03:00;95871.59;;;18.55;100.00
71457;BME280;59263;48.160;11.752;2023-09-19T08:05:25;95879.97;;;18.44;100.00
71457;BME280;59263;48.160;11.752;2023-09-19T08:07:51;95881.09;;;18.35;100.00
71457;BME280;59263;48.160;11.752;2023-09-19T08:10:17;95898.56;;;18.28;100.00
71457;BME280;59263;48.160;11.752;2023-09-19T08:12:45;95896.78;;;18.28;100.00
71457;BME280;59263;48.160;11.752;2023-09-19T08:15:13;95898.56;;;18.28;100.00
71457;BME280;59263;48.160;11.752;2023-09-19T08:17:39;95893.31;;;18.28;100.00
71457;BME280;59263;48.160;11.752;2023-09-19T08:20:04;95895.94;;;18.28;100.00
71457;BME280;59263;48.160;11.752;2023-09-19T08:22:30;95912.16;;;18.38;100.00
71457;BME280;59263;48.160;11.752;2023-09-19T08:24:57;95892.34;;;18.29;100.00
71457;BME280;59263;48.160;11.752;2023-09-19T08:27:23;95890.59;;;18.36;100.00
71457;BME280;59263;48.160;11.752;2023-09-19T08:29:52;95886.81;;;18.45;100.00
71457;BME280;59263;48.160;11.752;2023-09-19T08:32:17;95893.28;;;18.49;100.00
71457;BME280;59263;48.160;11.752;2023-09-19T08:34:48;95895.19;;;18.34;100.00
71457;BME280;59263;48.160;11.752;2023-09-19T08:37:14;95900.34;;;18.21;100.00
71457;BME280;59263;48.160;11.752;2023-09-19T08:39:39;95898.69;;;18.20;100.00
71457;BME280;59263;48.160;11.752;2023-09-19T08:42:04;95898.63;;;18.13;100.00
71457;BME280;59263;48.160;11.752;2023-09-19T08:44:30;95897.31;;;18.24;100.00
71457;BME280;59263;48.160;11.752;2023-09-19T08:47:04;95890.69;;;18.49;100.00
71457;BME280;59263;48.160;11.752;2023-09-19T08:49:41;95887.59;;;18.67;100.00
71457;BME280;59263;48.160;11.752;2023-09-19T08:52:20;95878.53;;;18.70;100.00
71457;BME280;59263;48.160;11.752;2023-09-19T08:54:51;95875.28;;;18.68;100.00
71457;BME280;59263;48.160;11.752;2023-09-19T08:57:19;95879.00;;;18.73;100.00
71457;BME280;59263;48.160;11.752;2023-09-19T08:59:48;95877.72;;;18.69;100.00
71457;BME280;59263;48.160;11.752;2023-09-19T09:02:15;95881.03;;;18.78;100.00
71457;BME280;59263;48.160;11.752;2023-09-19T09:04:43;95862.28;;;18.81;100.00
71457;BME280;59263;48.160;11.752;2023-09-19T09:07:11;95872.50;;;19.04;100.00
71457;BME280;59263;48.160;11.752;2023-09-19T09:09:38;95868.91;;;19.12;100.00
71457;BME280;59263;48.160;11.752;2023-09-19T09:12:16;95878.75;;;19.09;100.00
71457;BME280;59263;48.160;11.752;2023-09-19T09:14:45;95893.28;;;19.05;100.00
71457;BME280;59263;48.160;11.752;2023-09-19T09:17:15;95882.41;;;18.74;100.00
71457;BME280;59263;48.160;11.752;2023-09-19T09:19:41;95886.88;;;18.80;100.00
71457;BME280;59263;48.160;11.752;2023-09-19T09:22:08;95895.22;;;18.90;100.00
71457;BME280;59263;48.160;11.752;2023-09-19T09:24:34;95883.88;;;18.83;100.00
71457;BME280;59263;48.160;11.752;2023-09-19T09:27:06;95894.75;;;18.80;100.00
71457;BME280;59263;48.160;11.752;2023-09-19T09:29:53;95898.88;;;18.68;100.00
71457;BME280;59263;48.160;11.752;2023-09-19T09:32:24;95902.16;;;18.48;100.00
71457;BME280;59263;48.160;11.752;2023-09-19T09:34:54;95896.81;;;18.35;100.00
71457;BME280;59263;48.160;11.752;2023-09-19T09:37:21;95892.72;;;18.26;100.00
71457;BME280;59263;48.160;11.752;2023-09-19T09:39:56;95901.97;;;18.22;100.00
71457;BME280;59263;48.160;11.752;2023-09-19T09:42:36;95883.25;;;18.53;100.00
71457;BME280;59263;48.160;11.752;2023-09-19T09:45:25;95879.19;;;19.06;100.00
71457;BME280;59263;48.160;11.752;2023-09-19T09:48:03;95880.06;;;19.27;100.00
71457;BME280;59263;48.160;11.752;2023-09-19T09:50:35;95879.75;;;19.43;100.00
71457;BME280;59263;48.160;11.752;2023-09-19T09:53:24;95867.25;;;19.58;100.00
71457;BME280;59263;48.160;11.752;2023-09-19T09:56:05;95867.66;;;19.55;100.00
71457;BME280;59263;48.160;11.752;2023-09-19T09:58:52;95875.25;;;19.37;100.00
71457;BME280;59263;48.160;11.752;2023-09-19T10:01:21;95876.56;;;19.13;100.00
71457;BME280;59263;48.160;11.752;2023-09-19T10:03:56;95877.53;;;19.05;100.00
71457;BME280;59263;48.160;11.752;2023-09-19T10:06:22;95882.78;;;18.99;100.00
71457;BME280;59263;48.160;11.752;2023-09-19T10:09:08;95886.31;;;19.26;100.00
71457;BME280;59263;48.160;11.752;2023-09-19T10:11:42;95863.75;;;19.38;100.00
71457;BME280;59263;48.160;11.752;2023-09-19T10:14:09;95850.28;;;19.61;100.00
71457;BME280;59263;48.160;11.752;2023-09-19T10:16:36;95865.31;;;19.94;100.00
71457;BME280;59263;48.160;11.752;2023-09-19T10:19:07;95853.44;;;19.91;100.00
71457;BME280;59263;48.160;11.752;2023-09-19T10:21:36;95866.72;;;19.70;100.00
71457;BME280;59263;48.160;11.752;2023-09-19T10:24:03;95865.59;;;19.44;100.00
71457;BME280;59263;48.160;11.752;2023-09-19T10:26:34;95868.59;;;19.34;100.00
71457;BME280;59263;48.160;11.752;2023-09-19T10:29:01;95875.25;;;19.37;100.00
71457;BME280;59263;48.160;11.752;2023-09-19T10:31:29;95871.72;;;19.65;100.00
71457;BME280;59263;48.160;11.752;2023-09-19T10:33:59;95867.16;;;19.93;100.00
71457;BME280;59263;48.160;11.752;2023-09-19T10:36:32;95866.16;;;19.88;100.00
71457;BME280;59263;48.160;11.752;2023-09-19T10:39:01;95864.94;;;20.03;100.00
71457;BME280;59263;48.160;11.752;2023-09-19T10:41:30;95876.28;;;20.30;100.00
71457;BME280;59263;48.160;11.752;2023-09-19T10:44:02;95870.63;;;20.53;100.00
71457;BME280;59263;48.160;11.752;2023-09-19T10:46:28;95873.03;;;20.48;100.00
71457;BME280;59263;48.160;11.752;2023-09-19T10:48:59;95869.81;;;20.40;100.00
71457;BME280;59263;48.160;11.752;2023-09-19T10:51:25;95865.38;;;20.53;100.00
71457;BME280;59263;48.160;11.752;2023-09-19T10:54:01;95862.13;;;20.38;100.00
71457;BME280;59263;48.160;11.752;2023-09-19T10:56:35;95873.03;;;20.22;100.00
71457;BME280;59263;48.160;11.752;2023-09-19T10:59:15;95862.91;;;20.45;100.00
71457;BME280;59263;48.160;11.752;2023-09-19T11:01:45;95872.03;;;20.63;100.00
71457;BME280;59263;48.160;11.752;2023-09-19T11:07:12;95872.22;;;20.81;100.00
71457;BME280;59263;48.160;11.752;2023-09-19T11:15:07;95864.16;;;20.49;100.00
71457;BME280;59263;48.160;11.752;2023-09-19T11:17:38;95873.84;;;20.49;100.00
71457;BME280;59263;48.160;11.752;2023-09-19T11:43:48;95854.22;;;20.78;100.00
71457;BME280;59263;48.160;11.752;2023-09-19T11:46:16;95843.84;;;20.90;100.00
71457;BME280;59263;48.160;11.752;2023-09-19T11:48:43;95840.19;;;21.04;100.00
71457;BME280;59263;48.160;11.752;2023-09-19T11:51:12;95844.41;;;21.12;100.00
71457;BME280;59263;48.160;11.752;2023-09-19T11:53:46;95846.41;;;21.10;100.00
71457;BME280;59263;48.160;11.752;2023-09-19T11:56:15;95845.84;;;21.08;100.00
71457;BME280;59263;48.160;11.752;2023-09-19T11:58:43;95846.38;;;21.23;100.00
71457;BME280;59263;48.160;11.752;2023-09-19T12:01:12;95844.13;;;21.33;100.00
71457;BME280;59263;48.160;11.752;2023-09-19T12:03:43;95835.97;;;21.48;100.00
71457;BME280;59263;48.160;11.752;2023-09-19T12:06:15;95849.00;;;21.36;100.00
71457;BME280;59263;48.160;11.752;2023-09-19T12:08:42;95857.56;;;21.12;100.00
71457;BME280;59263;48.160;11.752;2023-09-19T12:11:16;95855.19;;;20.90;100.00
71457;BME280;59263;48.160;11.752;2023-09-19T12:13:45;95857.66;;;20.72;100.00
71457;BME280;59263;48.160;11.752;2023-09-19T12:16:18;95851.19;;;20.61;100.00
71457;BME280;59263;48.160;11.752;2023-09-19T12:18:47;95854.44;;;20.70;100.00
71457;BME280;59263;48.160;11.752;2023-09-19T12:21:29;95853.59;;;20.83;100.00
71457;BME280;59263;48.160;11.752;2023-09-19T12:26:39;95841.28;;;20.70;100.00
71457;BME280;59263;48.160;11.752;2023-09-19T12:29:11;95835.44;;;20.54;100.00
71457;BME280;59263;48.160;11.752;2023-09-19T12:31:47;95847.56;;;20.62;100.00
71457;BME280;59263;48.160;11.752;2023-09-19T12:34:17;95832.22;;;20.52;100.00
71457;BME280;59263;48.160;11.752;2023-09-19T12:36:43;95845.13;;;20.67;100.00
71457;BME280;59263;48.160;11.752;2023-09-19T12:39:08;95842.28;;;20.69;100.00
71457;BME280;59263;48.160;11.752;2023-09-19T12:41:34;95841.50;;;20.62;100.00
71457;BME280;59263;48.160;11.752;2023-09-19T12:44:00;95840.72;;;20.54;100.00
71457;BME280;59263;48.160;11.752;2023-09-19T12:46:26;95845.94;;;20.28;100.00
71457;BME280;59263;48.160;11.752;2023-09-19T12:49:17;95841.50;;;20.22;100.00
71457;BME280;59263;48.160;11.752;2023-09-19T12:51:44;95835.81;;;20.38;100.00
71457;BME280;59263;48.160;11.752;2023-09-19T12:54:10;95827.34;;;20.49;100.00
71457;BME280;59263;48.160;11.752;2023-09-19T12:56:40;95827.75;;;20.53;100.00
71457;BME280;59263;48.160;11.752;2023-09-19T12:59:09;95829.16;;;20.62;100.00
71457;BME280;59263;48.160;11.752;2023-09-19T13:01:42;95835.63;;;20.73;100.00
71457;BME280;59263;48.160;11.752;2023-09-19T13:04:18;95821.78;;;20.91;100.00
71457;BME280;59263;48.160;11.752;2023-09-19T13:06:48;95828.00;;;21.10;100.00
71457;BME280;59263;48.160;11.752;2023-09-19T13:09:15;95826.63;;;21.00;100.00
71457;BME280;59263;48.160;11.752;2023-09-19T13:11:41;95821.59;;;20.92;100.00
71457;BME280;59263;48.160;11.752;2023-09-19T13:14:23;95828.47;;;20.93;100.00
71457;BME280;59263;48.160;11.752;2023-09-19T13:17:08;95821.53;;;21.06;100.00
71457;BME280;59263;48.160;11.752;2023-09-19T13:19:48;95826.78;;;21.06;100.00
71457;BME280;59263;48.160;11.752;2023-09-19T13:22:43;95836.19;;;20.82;100.00
71457;BME280;59263;48.160;11.752;2023-09-19T13:25:19;95831.00;;;20.62;100.00
71457;BME280;59263;48.160;11.752;2023-09-19T13:27:46;95843.75;;;20.58;100.00
71457;BME280;59263;48.160;11.752;2023-09-19T13:30:13;95829.75;;;20.58;100.00
71457;BME280;59263;48.160;11.752;2023-09-19T13:32:39;95827.97;;;20.51;100.00
71457;BME280;59263;48.160;11.752;2023-09-19T13:35:06;95817.25;;;20.33;100.00
71457;BME280;59263;48.160;11.752;2023-09-19T13:37:34;95835.03;;;20.31;100.00